Aeroporto :
LOGIN :

Iscrizione | Disclaimer

   EN    FR    IT 

 










Sommario :    VFR   VFR Marginale   IFR   IFR Intensivo   IFR Molto Intensivo
Visibilità : 
Base nubi : 
>= 8 km
>= 3000ft
5 / 8 km
1000 / 3000 ft
1500m / 5 km
500 / 1000 ft
800 / 1500m
200 / 500 ft
< 800m
< 200 ft
Simboli :   Temporali  Nebbia  Neve Forte  Precipitazioni Forti  Vento > 20 kt
SIGMETs :   Varie  Temporali  Ghiacco  Turbolenza  Onda orograficha  Ceneri Vulcaniche






- Altitudine del aeroporto : 247 ft
- Codice IATA : BLL


EKBI - Billund

ULTIMO METAR :
  • 210220Z AUTO 25013KT 9999 OVC008/// 06/04 Q1036

METARs OBSOLETI :
  • 210150Z AUTO 26014KT 9999 OVC009/// 06/04 Q1036
  • 210120Z AUTO 25016KT 9999 OVC010/// 06/04 Q1036
  • 210050Z AUTO 25012KT 9999 OVC009/// 06/04 Q1036
  • 210020Z AUTO 25013KT 9999 OVC008/// 06/05 Q1037
  • 202350Z AUTO 25015KT 210V270 9999 OVC010/// 06/04 Q1037

TAF TAF EKBI
Valido dal 21 a 00 ore il 22 a 00 ore UTC


202257Z 2100/2124 26015KT 9999 BKN012
TEMPO 2100/2114 BKN006
TEMPO 2114/2118 3000 -RADZ BR BKN004
BECMG 2118/2120 FEW012 SCT020



MetMap, La meteo Aeronautica in un colpo d'occhio ! - Copyright ORBIFLY Dicembre 2007 - Disclaimer

ORBIFLY MET'MAP TEAM :

Programmazione e sviluppo : Alexandra Zaïnal
Concezione : Baudouin d'Aumeries
Aiuto per la programmazione : Marc-Olivier Méhu
Supporto tecnico e logistico : Manuel Goepfert
Aiuto per la traduzione : Arnaldo La Scala

Contatto : metmap@orbifly.com




FONTI E CREDITI :

   NOAA